Home   Weather   India   Chandigarh   Past weeks
Flag for India

Past Weather in Chandigarh, Chandigarh, India — Yesterday and Last 2 Weeks

Currently: 91 °F. Haze. (Weather station: Amritsar Airport, India). See more current weather

Past Weather in Chandigarh — Graph

°F

Chandigarh Temperature Yesterday

Maximum temperature yesterday: 111 °F (at 1:00 pm)
Minimum temperature yesterday: 81 °F (at 5:30 am)
Average temperature yesterday: 98 °F

High & Low Weather Summary for the Past Weeks

 TemperatureHumidityPressure
High115 °F (Jun 3, 3:00 pm)89% (Jun 6, 5:00 am)29.77 "Hg (Jun 6, 5:00 am)
Low73 °F (Jun 6, 5:00 am)8% (Jun 3, 3:00 pm)29.42 "Hg (Jun 13, 5:00 pm)
Average95 °F38%29.57 "Hg
* Reported May 31 1:30 am — Jun 15 2:00 am, Chandigarh. Weather by CustomWeather, © 2024

Note: Actual official high and low records may vary slightly from our data, if they occured in-between our weather recording intervals... More about our weather records

Chandigarh Weather History for the Previous 24 Hours

Scroll right to see more
 ConditionsComfort  
Time TempWeatherWind HumidityBarometerVisibility
2:00 am
Sat, Jun 15
91 °FHaze.5 mph44%29.47 "Hg3 mi
1:00 am91 °FClear.2 mph44%29.50 "Hg4 mi
12:30 am91 °FClear.3 mph44%29.50 "Hg4 mi
11:30 pm
Fri, Jun 14
91 °FClear.5 mph41%29.50 "Hg4 mi
10:30 pm93 °FClear.3 mph39%29.50 "Hg4 mi
10:00 pm95 °FClear.3 mph36%29.47 "Hg4 mi
9:30 pm95 °FClear.5 mph36%29.47 "Hg4 mi
9:00 pm99 °FClear.3 mph31%29.47 "Hg4 mi
8:30 pm102 °FClear.5 mph27%29.47 "Hg4 mi
8:00 pm104 °FClear.7 mph24%29.45 "Hg4 mi
7:00 pm108 °FClear.7 mph22%29.45 "Hg4 mi
6:30 pm108 °FClear.7 mph20%29.45 "Hg4 mi
6:00 pm109 °FClear.3 mph18%29.45 "Hg4 mi
5:30 pm109 °FClear.7 mph19%29.45 "Hg4 mi
5:00 pm111 °FClear.6 mph17%29.45 "Hg4 mi
4:30 pm111 °FClear.7 mph18%29.45 "Hg4 mi
4:00 pm111 °FClear.3 mph18%29.47 "Hg4 mi
3:30 pm111 °FClear.2 mph20%29.47 "Hg4 mi
3:00 pm111 °FClear.3 mph18%29.47 "Hg4 mi
2:00 pm111 °FClear.2 mph18%29.50 "Hg4 mi
1:30 pm111 °FClear.3 mph18%29.50 "Hg4 mi
1:00 pm111 °FClear.6 mph18%29.50 "Hg4 mi
12:30 pm109 °FClear.2 mph19%29.50 "Hg4 mi
12:00 pm108 °FClear.6 mph20%29.53 "Hg4 mi
11:30 am108 °FClear.2 mph22%29.53 "Hg4 mi
11:00 am106 °FClear.2 mph23%29.53 "Hg4 mi
10:30 am104 °FClear.2 mph26%29.53 "Hg4 mi
10:00 am102 °FClear.2 mph27%29.53 "Hg4 mi
9:30 am99 °FClear.6 mph31%29.53 "Hg4 mi
9:00 am95 °FClear.7 mph36%29.53 "Hg4 mi
8:00 am91 °FPassing clouds.6 mph41%29.53 "Hg4 mi
7:00 am84 °FPassing clouds.6 mph55%29.53 "Hg4 mi
6:30 am84 °FPassing clouds.3 mph55%29.53 "Hg4 mi
6:00 am82 °FClear.6 mph55%29.50 "Hg4 mi
5:30 am81 °FHaze.5 mph54%29.50 "Hg3 mi
5:00 am82 °FHaze.2 mph51%29.47 "Hg3 mi
4:30 am88 °FHaze.2 mph43%29.47 "Hg3 mi
4:00 am86 °FHaze.2 mph49%29.47 "Hg3 mi
3:30 am86 °FHaze.2 mph46%29.47 "Hg3 mi
3:00 am86 °FHaze.5 mph46%29.47 "Hg3 mi
Weather by CustomWeather, © 2024

See weather overview